sensor_id;sensor_type;location;lat;lon;timestamp;temperature;humidity
16846;DHT22;8539;53.188;8.696;2024-01-06T00:02:06;1.00;99.90
16846;DHT22;8539;53.188;8.696;2024-01-06T00:04:32;1.00;99.90
16846;DHT22;8539;53.188;8.696;2024-01-06T00:06:58;1.00;99.90
16846;DHT22;8539;53.188;8.696;2024-01-06T00:09:24;1.00;99.90
16846;DHT22;8539;53.188;8.696;2024-01-06T00:11:50;1.00;99.90
16846;DHT22;8539;53.188;8.696;2024-01-06T00:14:16;0.90;99.90
16846;DHT22;8539;53.188;8.696;2024-01-06T00:16:42;0.90;99.90
16846;DHT22;8539;53.188;8.696;2024-01-06T00:19:08;0.90;99.90
16846;DHT22;8539;53.188;8.696;2024-01-06T00:21:34;0.90;99.90
16846;DHT22;8539;53.188;8.696;2024-01-06T00:24:00;1.00;99.90
16846;DHT22;8539;53.188;8.696;2024-01-06T00:26:27;0.90;99.90
16846;DHT22;8539;53.188;8.696;2024-01-06T00:28:52;0.90;99.90
16846;DHT22;8539;53.188;8.696;2024-01-06T00:31:18;0.90;99.90
16846;DHT22;8539;53.188;8.696;2024-01-06T00:33:45;0.90;99.90
16846;DHT22;8539;53.188;8.696;2024-01-06T00:36:12;0.90;99.90
16846;DHT22;8539;53.188;8.696;2024-01-06T00:38:38;0.90;99.90
16846;DHT22;8539;53.188;8.696;2024-01-06T00:41:04;0.90;99.90
16846;DHT22;8539;53.188;8.696;2024-01-06T00:43:30;0.90;99.90
16846;DHT22;8539;53.188;8.696;2024-01-06T00:45:56;0.90;99.90
16846;DHT22;8539;53.188;8.696;2024-01-06T00:48:22;0.90;99.90
16846;DHT22;8539;53.188;8.696;2024-01-06T00:50:48;0.90;99.90
16846;DHT22;8539;53.188;8.696;2024-01-06T00:53:14;0.90;99.90
16846;DHT22;8539;53.188;8.696;2024-01-06T00:55:40;0.80;99.90
16846;DHT22;8539;53.188;8.696;2024-01-06T00:58:06;0.80;99.90
16846;DHT22;8539;53.188;8.696;2024-01-06T01:00:32;0.80;99.90
16846;DHT22;8539;53.188;8.696;2024-01-06T01:02:58;0.80;99.90
16846;DHT22;8539;53.188;8.696;2024-01-06T01:05:25;0.80;99.90
16846;DHT22;8539;53.188;8.696;2024-01-06T01:07:51;0.80;99.90
16846;DHT22;8539;53.188;8.696;2024-01-06T01:10:17;0.80;99.90
16846;DHT22;8539;53.188;8.696;2024-01-06T01:12:44;0.80;99.90
16846;DHT22;8539;53.188;8.696;2024-01-06T01:15:11;0.80;99.90
16846;DHT22;8539;53.188;8.696;2024-01-06T01:17:37;0.80;99.90
16846;DHT22;8539;53.188;8.696;2024-01-06T01:20:04;0.80;99.90
16846;DHT22;8539;53.188;8.696;2024-01-06T01:22:31;0.80;99.90
16846;DHT22;8539;53.188;8.696;2024-01-06T01:24:57;0.80;99.90
16846;DHT22;8539;53.188;8.696;2024-01-06T01:27:23;0.80;99.90
16846;DHT22;8539;53.188;8.696;2024-01-06T01:29:50;0.80;99.90
16846;DHT22;8539;53.188;8.696;2024-01-06T01:32:18;0.80;99.90
16846;DHT22;8539;53.188;8.696;2024-01-06T01:34:45;0.80;99.90
16846;DHT22;8539;53.188;8.696;2024-01-06T01:37:11;0.80;99.90
16846;DHT22;8539;53.188;8.696;2024-01-06T01:39:38;0.80;99.90
16846;DHT22;8539;53.188;8.696;2024-01-06T01:42:05;0.70;99.90
16846;DHT22;8539;53.188;8.696;2024-01-06T01:44:31;0.70;99.90
16846;DHT22;8539;53.188;8.696;2024-01-06T01:46:58;0.70;99.90
16846;DHT22;8539;53.188;8.696;2024-01-06T01:49:25;0.70;99.90
16846;DHT22;8539;53.188;8.696;2024-01-06T01:51:52;0.70;99.90
16846;DHT22;8539;53.188;8.696;2024-01-06T01:54:19;0.70;99.90
16846;DHT22;8539;53.188;8.696;2024-01-06T01:56:45;0.70;99.90
16846;DHT22;8539;53.188;8.696;2024-01-06T01:59:13;0.70;99.90
16846;DHT22;8539;53.188;8.696;2024-01-06T02:01:40;0.70;99.90
16846;DHT22;8539;53.188;8.696;2024-01-06T02:04:10;0.70;99.90
16846;DHT22;8539;53.188;8.696;2024-01-06T02:06:36;0.60;99.90
16846;DHT22;8539;53.188;8.696;2024-01-06T02:09:02;0.80;99.90
16846;DHT22;8539;53.188;8.696;2024-01-06T02:11:28;0.60;99.90
16846;DHT22;8539;53.188;8.696;2024-01-06T02:13:55;0.60;99.90
16846;DHT22;8539;53.188;8.696;2024-01-06T02:16:21;0.60;99.90
16846;DHT22;8539;53.188;8.696;2024-01-06T02:18:47;0.60;99.90
16846;DHT22;8539;53.188;8.696;2024-01-06T02:21:14;0.60;99.90
16846;DHT22;8539;53.188;8.696;2024-01-06T02:23:41;0.70;99.90
16846;DHT22;8539;53.188;8.696;2024-01-06T02:26:07;0.60;99.90
16846;DHT22;8539;53.188;8.696;2024-01-06T02:28:33;0.60;99.90
16846;DHT22;8539;53.188;8.696;2024-01-06T02:30:59;0.60;99.90
16846;DHT22;8539;53.188;8.696;2024-01-06T02:33:25;0.70;99.90
16846;DHT22;8539;53.188;8.696;2024-01-06T02:35:51;0.60;99.90
16846;DHT22;8539;53.188;8.696;2024-01-06T02:38:17;0.60;99.90
16846;DHT22;8539;53.188;8.696;2024-01-06T02:40:43;0.60;99.90
16846;DHT22;8539;53.188;8.696;2024-01-06T02:43:09;0.60;99.90
16846;DHT22;8539;53.188;8.696;2024-01-06T02:45:35;0.60;99.90
16846;DHT22;8539;53.188;8.696;2024-01-06T02:48:02;0.50;99.90
16846;DHT22;8539;53.188;8.696;2024-01-06T02:50:28;0.50;99.90
16846;DHT22;8539;53.188;8.696;2024-01-06T02:52:54;0.50;99.90
16846;DHT22;8539;53.188;8.696;2024-01-06T02:55:20;0.50;99.90
16846;DHT22;8539;53.188;8.696;2024-01-06T02:57:46;0.50;99.90
16846;DHT22;8539;53.188;8.696;2024-01-06T03:00:12;0.50;99.90
16846;DHT22;8539;53.188;8.696;2024-01-06T03:02:38;0.40;99.90
16846;DHT22;8539;53.188;8.696;2024-01-06T03:05:08;0.40;99.90
16846;DHT22;8539;53.188;8.696;2024-01-06T03:07:34;0.40;99.90
16846;DHT22;8539;53.188;8.696;2024-01-06T03:10:00;0.40;99.90
16846;DHT22;8539;53.188;8.696;2024-01-06T03:12:26;0.40;99.90
16846;DHT22;8539;53.188;8.696;2024-01-06T03:14:52;0.40;99.90
16846;DHT22;8539;53.188;8.696;2024-01-06T03:17:18;0.40;99.90
16846;DHT22;8539;53.188;8.696;2024-01-06T03:19:44;0.40;99.90
16846;DHT22;8539;53.188;8.696;2024-01-06T03:22:10;0.40;99.90
16846;DHT22;8539;53.188;8.696;2024-01-06T03:24:36;0.40;99.90
16846;DHT22;8539;53.188;8.696;2024-01-06T03:27:02;0.30;99.90
16846;DHT22;8539;53.188;8.696;2024-01-06T03:29:28;0.30;99.90
16846;DHT22;8539;53.188;8.696;2024-01-06T03:31:54;0.30;99.90
16846;DHT22;8539;53.188;8.696;2024-01-06T03:34:20;0.30;99.90
16846;DHT22;8539;53.188;8.696;2024-01-06T03:36:46;0.30;99.90
16846;DHT22;8539;53.188;8.696;2024-01-06T03:39:12;0.30;99.90
16846;DHT22;8539;53.188;8.696;2024-01-06T03:41:39;0.30;99.90
16846;DHT22;8539;53.188;8.696;2024-01-06T03:44:05;0.30;99.90
16846;DHT22;8539;53.188;8.696;2024-01-06T03:46:33;0.30;99.90
16846;DHT22;8539;53.188;8.696;2024-01-06T03:48:59;0.30;99.90
16846;DHT22;8539;53.188;8.696;2024-01-06T03:51:24;0.30;99.90
16846;DHT22;8539;53.188;8.696;2024-01-06T03:53:50;0.30;99.90
16846;DHT22;8539;53.188;8.696;2024-01-06T03:56:16;0.30;99.90
16846;DHT22;8539;53.188;8.696;2024-01-06T03:58:44;0.30;99.90
16846;DHT22;8539;53.188;8.696;2024-01-06T04:01:10;0.30;99.90
16846;DHT22;8539;53.188;8.696;2024-01-06T04:03:36;0.30;99.90
16846;DHT22;8539;53.188;8.696;2024-01-06T04:06:02;0.30;99.90
16846;DHT22;8539;53.188;8.696;2024-01-06T04:08:28;0.30;99.90
16846;DHT22;8539;53.188;8.696;2024-01-06T04:10:54;0.30;99.90
16846;DHT22;8539;53.188;8.696;2024-01-06T04:13:20;0.30;99.90
16846;DHT22;8539;53.188;8.696;2024-01-06T04:15:46;0.30;99.90
16846;DHT22;8539;53.188;8.696;2024-01-06T04:18:13;0.30;99.90
16846;DHT22;8539;53.188;8.696;2024-01-06T04:20:38;0.30;99.90
16846;DHT22;8539;53.188;8.696;2024-01-06T04:23:04;0.30;99.90
16846;DHT22;8539;53.188;8.696;2024-01-06T04:25:30;0.30;99.90
16846;DHT22;8539;53.188;8.696;2024-01-06T04:27:56;0.30;99.90
16846;DHT22;8539;53.188;8.696;2024-01-06T04:30:22;0.50;99.90
16846;DHT22;8539;53.188;8.696;2024-01-06T04:32:50;0.30;99.90
16846;DHT22;8539;53.188;8.696;2024-01-06T04:35:16;0.30;99.90
16846;DHT22;8539;53.188;8.696;2024-01-06T04:37:42;0.30;99.90
16846;DHT22;8539;53.188;8.696;2024-01-06T04:40:08;0.40;99.90
16846;DHT22;8539;53.188;8.696;2024-01-06T04:42:34;0.30;99.90
16846;DHT22;8539;53.188;8.696;2024-01-06T04:45:00;0.30;99.90
16846;DHT22;8539;53.188;8.696;2024-01-06T04:47:26;0.30;99.90
16846;DHT22;8539;53.188;8.696;2024-01-06T04:49:53;0.30;99.90
16846;DHT22;8539;53.188;8.696;2024-01-06T04:52:19;0.30;99.90
16846;DHT22;8539;53.188;8.696;2024-01-06T04:54:45;0.30;99.90
16846;DHT22;8539;53.188;8.696;2024-01-06T04:57:11;0.30;99.90
16846;DHT22;8539;53.188;8.696;2024-01-06T04:59:37;0.30;99.90
16846;DHT22;8539;53.188;8.696;2024-01-06T05:02:03;0.30;99.90
16846;DHT22;8539;53.188;8.696;2024-01-06T05:04:30;0.30;99.90
16846;DHT22;8539;53.188;8.696;2024-01-06T05:06:58;0.30;99.90
16846;DHT22;8539;53.188;8.696;2024-01-06T05:09:24;0.30;99.90
16846;DHT22;8539;53.188;8.696;2024-01-06T05:11:50;0.30;99.90
16846;DHT22;8539;53.188;8.696;2024-01-06T05:14:16;0.30;99.90
16846;DHT22;8539;53.188;8.696;2024-01-06T05:16:42;0.30;99.90
16846;DHT22;8539;53.188;8.696;2024-01-06T05:19:09;0.40;99.90
16846;DHT22;8539;53.188;8.696;2024-01-06T05:21:35;0.40;99.90
16846;DHT22;8539;53.188;8.696;2024-01-06T05:24:01;0.40;99.90
16846;DHT22;8539;53.188;8.696;2024-01-06T05:26:27;0.40;99.90
16846;DHT22;8539;53.188;8.696;2024-01-06T05:28:53;0.40;99.90
16846;DHT22;8539;53.188;8.696;2024-01-06T05:31:19;0.30;99.90
16846;DHT22;8539;53.188;8.696;2024-01-06T05:33:44;0.30;99.90
16846;DHT22;8539;53.188;8.696;2024-01-06T05:36:11;0.30;99.90
16846;DHT22;8539;53.188;8.696;2024-01-06T05:38:37;0.30;99.90
16846;DHT22;8539;53.188;8.696;2024-01-06T05:41:03;0.30;99.90
16846;DHT22;8539;53.188;8.696;2024-01-06T05:43:29;0.30;99.90
16846;DHT22;8539;53.188;8.696;2024-01-06T05:45:55;0.30;99.90
16846;DHT22;8539;53.188;8.696;2024-01-06T05:48:21;0.30;99.90
16846;DHT22;8539;53.188;8.696;2024-01-06T05:50:47;0.30;99.90
16846;DHT22;8539;53.188;8.696;2024-01-06T05:53:13;0.30;99.90
16846;DHT22;8539;53.188;8.696;2024-01-06T05:55:40;0.30;99.90
16846;DHT22;8539;53.188;8.696;2024-01-06T05:58:06;0.30;99.90
16846;DHT22;8539;53.188;8.696;2024-01-06T06:00:31;0.30;99.90
16846;DHT22;8539;53.188;8.696;2024-01-06T06:02:58;0.20;99.90
16846;DHT22;8539;53.188;8.696;2024-01-06T06:05:24;0.20;99.90
16846;DHT22;8539;53.188;8.696;2024-01-06T06:07:50;0.20;99.90
16846;DHT22;8539;53.188;8.696;2024-01-06T06:10:16;0.20;99.90
16846;DHT22;8539;53.188;8.696;2024-01-06T06:12:44;0.30;99.90
16846;DHT22;8539;53.188;8.696;2024-01-06T06:15:10;0.30;99.90
16846;DHT22;8539;53.188;8.696;2024-01-06T06:17:36;0.20;99.90
16846;DHT22;8539;53.188;8.696;2024-01-06T06:20:02;0.20;99.90
16846;DHT22;8539;53.188;8.696;2024-01-06T06:22:28;0.20;99.90
16846;DHT22;8539;53.188;8.696;2024-01-06T06:25:01;0.20;99.90
16846;DHT22;8539;53.188;8.696;2024-01-06T06:27:27;0.20;99.90
16846;DHT22;8539;53.188;8.696;2024-01-06T06:29:54;0.20;99.90
16846;DHT22;8539;53.188;8.696;2024-01-06T06:32:20;0.20;99.90
16846;DHT22;8539;53.188;8.696;2024-01-06T06:34:46;0.20;99.90
16846;DHT22;8539;53.188;8.696;2024-01-06T06:37:12;0.20;99.90
16846;DHT22;8539;53.188;8.696;2024-01-06T06:39:38;0.20;99.90
16846;DHT22;8539;53.188;8.696;2024-01-06T06:42:04;0.20;99.90
16846;DHT22;8539;53.188;8.696;2024-01-06T06:44:30;0.20;99.90
16846;DHT22;8539;53.188;8.696;2024-01-06T06:46:56;0.20;99.90
16846;DHT22;8539;53.188;8.696;2024-01-06T06:49:22;0.20;99.90
16846;DHT22;8539;53.188;8.696;2024-01-06T06:51:48;0.20;99.90
16846;DHT22;8539;53.188;8.696;2024-01-06T06:54:15;0.10;99.90
16846;DHT22;8539;53.188;8.696;2024-01-06T06:56:42;0.10;99.90
16846;DHT22;8539;53.188;8.696;2024-01-06T06:59:09;0.10;99.90
16846;DHT22;8539;53.188;8.696;2024-01-06T07:01:35;0.00;99.90
16846;DHT22;8539;53.188;8.696;2024-01-06T07:04:02;0.00;99.90
16846;DHT22;8539;53.188;8.696;2024-01-06T07:06:29;0.00;99.90
16846;DHT22;8539;53.188;8.696;2024-01-06T07:08:56;0.00;99.90
16846;DHT22;8539;53.188;8.696;2024-01-06T07:11:22;0.00;99.90
16846;DHT22;8539;53.188;8.696;2024-01-06T07:13:48;0.00;99.90
16846;DHT22;8539;53.188;8.696;2024-01-06T07:16:14;0.00;99.90
16846;DHT22;8539;53.188;8.696;2024-01-06T07:18:40;0.00;99.90
16846;DHT22;8539;53.188;8.696;2024-01-06T07:21:06;0.00;99.90
16846;DHT22;8539;53.188;8.696;2024-01-06T07:23:33;0.00;99.90
16846;DHT22;8539;53.188;8.696;2024-01-06T07:25:59;0.00;99.90
16846;DHT22;8539;53.188;8.696;2024-01-06T07:28:25;0.00;99.90
16846;DHT22;8539;53.188;8.696;2024-01-06T07:30:51;0.00;99.90
16846;DHT22;8539;53.188;8.696;2024-01-06T07:33:17;0.00;99.90
16846;DHT22;8539;53.188;8.696;2024-01-06T07:35:43;0.00;99.90
16846;DHT22;8539;53.188;8.696;2024-01-06T07:38:10;0.00;99.90
16846;DHT22;8539;53.188;8.696;2024-01-06T07:40:36;0.00;99.90
16846;DHT22;8539;53.188;8.696;2024-01-06T07:43:03;0.00;99.90
16846;DHT22;8539;53.188;8.696;2024-01-06T07:45:31;0.00;99.90
16846;DHT22;8539;53.188;8.696;2024-01-06T07:48:00;-0.10;99.90
16846;DHT22;8539;53.188;8.696;2024-01-06T07:50:27;-0.10;99.90
16846;DHT22;8539;53.188;8.696;2024-01-06T07:52:53;-0.10;99.90
16846;DHT22;8539;53.188;8.696;2024-01-06T07:55:19;0.00;99.90
16846;DHT22;8539;53.188;8.696;2024-01-06T07:57:46;0.00;99.90
16846;DHT22;8539;53.188;8.696;2024-01-06T08:00:12;-0.10;99.90
16846;DHT22;8539;53.188;8.696;2024-01-06T08:02:42;0.00;99.90
16846;DHT22;8539;53.188;8.696;2024-01-06T08:05:08;-0.10;99.90
16846;DHT22;8539;53.188;8.696;2024-01-06T08:07:34;-0.10;99.90
16846;DHT22;8539;53.188;8.696;2024-01-06T08:10:00;-0.10;99.90
16846;DHT22;8539;53.188;8.696;2024-01-06T08:12:26;-0.10;99.90
16846;DHT22;8539;53.188;8.696;2024-01-06T08:14:52;-0.10;99.90
16846;DHT22;8539;53.188;8.696;2024-01-06T08:17:18;-0.10;99.90
16846;DHT22;8539;53.188;8.696;2024-01-06T08:19:44;-0.10;99.90
16846;DHT22;8539;53.188;8.696;2024-01-06T08:22:13;-0.10;99.90
16846;DHT22;8539;53.188;8.696;2024-01-06T08:24:39;-0.10;99.90
16846;DHT22;8539;53.188;8.696;2024-01-06T08:27:04;-0.10;99.90
16846;DHT22;8539;53.188;8.696;2024-01-06T08:29:31;-0.10;99.90
16846;DHT22;8539;53.188;8.696;2024-01-06T08:31:57;-0.10;99.90
16846;DHT22;8539;53.188;8.696;2024-01-06T08:34:23;0.00;99.90
16846;DHT22;8539;53.188;8.696;2024-01-06T08:36:48;-0.10;99.90
16846;DHT22;8539;53.188;8.696;2024-01-06T08:39:14;-0.10;99.90
16846;DHT22;8539;53.188;8.696;2024-01-06T08:41:41;0.00;99.90
16846;DHT22;8539;53.188;8.696;2024-01-06T08:44:07;0.00;99.90
16846;DHT22;8539;53.188;8.696;2024-01-06T08:46:32;0.00;99.90
16846;DHT22;8539;53.188;8.696;2024-01-06T08:48:58;-0.10;99.90
16846;DHT22;8539;53.188;8.696;2024-01-06T08:51:26;-0.10;99.90
16846;DHT22;8539;53.188;8.696;2024-01-06T08:53:52;-0.10;99.90
16846;DHT22;8539;53.188;8.696;2024-01-06T08:56:19;0.00;99.90
16846;DHT22;8539;53.188;8.696;2024-01-06T08:58:45;-0.10;99.90
16846;DHT22;8539;53.188;8.696;2024-01-06T09:01:10;0.00;99.90
16846;DHT22;8539;53.188;8.696;2024-01-06T09:03:37;-0.10;99.90
16846;DHT22;8539;53.188;8.696;2024-01-06T09:06:03;-0.10;99.90
16846;DHT22;8539;53.188;8.696;2024-01-06T09:08:29;-0.10;99.90
16846;DHT22;8539;53.188;8.696;2024-01-06T09:10:55;-0.10;99.90
16846;DHT22;8539;53.188;8.696;2024-01-06T09:13:23;-0.10;99.90
16846;DHT22;8539;53.188;8.696;2024-01-06T09:15:52;0.10;99.90
16846;DHT22;8539;53.188;8.696;2024-01-06T09:18:18;0.00;99.90
16846;DHT22;8539;53.188;8.696;2024-01-06T09:20:44;0.00;99.90
16846;DHT22;8539;53.188;8.696;2024-01-06T09:23:13;0.00;99.90
16846;DHT22;8539;53.188;8.696;2024-01-06T09:25:39;0.00;99.90
16846;DHT22;8539;53.188;8.696;2024-01-06T09:28:07;0.00;99.90
16846;DHT22;8539;53.188;8.696;2024-01-06T09:30:33;0.00;99.90
16846;DHT22;8539;53.188;8.696;2024-01-06T09:32:59;0.00;99.90
16846;DHT22;8539;53.188;8.696;2024-01-06T09:35:25;0.00;99.90
16846;DHT22;8539;53.188;8.696;2024-01-06T09:37:51;0.10;99.90
16846;DHT22;8539;53.188;8.696;2024-01-06T09:40:23;0.00;99.90
16846;DHT22;8539;53.188;8.696;2024-01-06T09:42:52;0.00;99.90
16846;DHT22;8539;53.188;8.696;2024-01-06T09:45:21;0.00;99.90
16846;DHT22;8539;53.188;8.696;2024-01-06T09:47:49;0.00;99.90
16846;DHT22;8539;53.188;8.696;2024-01-06T09:50:20;0.10;99.90
16846;DHT22;8539;53.188;8.696;2024-01-06T09:52:47;0.00;99.90
16846;DHT22;8539;53.188;8.696;2024-01-06T09:55:24;0.00;99.90
16846;DHT22;8539;53.188;8.696;2024-01-06T09:57:54;0.40;99.90
16846;DHT22;8539;53.188;8.696;2024-01-06T10:00:20;0.10;99.90
16846;DHT22;8539;53.188;8.696;2024-01-06T10:02:50;0.10;99.90
16846;DHT22;8539;53.188;8.696;2024-01-06T10:05:21;0.10;99.90
16846;DHT22;8539;53.188;8.696;2024-01-06T10:07:47;0.00;99.90
16846;DHT22;8539;53.188;8.696;2024-01-06T10:10:14;0.10;99.90
16846;DHT22;8539;53.188;8.696;2024-01-06T10:12:42;0.10;99.90
16846;DHT22;8539;53.188;8.696;2024-01-06T10:15:10;0.10;99.90
16846;DHT22;8539;53.188;8.696;2024-01-06T10:17:40;0.10;99.90
16846;DHT22;8539;53.188;8.696;2024-01-06T10:20:13;0.10;99.90
16846;DHT22;8539;53.188;8.696;2024-01-06T10:22:42;0.10;99.90
16846;DHT22;8539;53.188;8.696;2024-01-06T10:25:09;0.10;99.90
16846;DHT22;8539;53.188;8.696;2024-01-06T10:27:36;0.10;99.90
16846;DHT22;8539;53.188;8.696;2024-01-06T10:30:03;0.10;99.90
16846;DHT22;8539;53.188;8.696;2024-01-06T10:32:32;0.10;99.90
16846;DHT22;8539;53.188;8.696;2024-01-06T10:35:00;0.10;99.90
16846;DHT22;8539;53.188;8.696;2024-01-06T10:37:29;0.10;99.90
16846;DHT22;8539;53.188;8.696;2024-01-06T10:40:11;0.10;99.90
16846;DHT22;8539;53.188;8.696;2024-01-06T10:42:38;0.10;99.90
16846;DHT22;8539;53.188;8.696;2024-01-06T10:45:10;0.20;99.90
16846;DHT22;8539;53.188;8.696;2024-01-06T10:47:37;0.20;99.90
16846;DHT22;8539;53.188;8.696;2024-01-06T10:50:04;0.20;99.90
16846;DHT22;8539;53.188;8.696;2024-01-06T10:52:30;0.20;99.90
16846;DHT22;8539;53.188;8.696;2024-01-06T10:54:57;0.30;99.90
16846;DHT22;8539;53.188;8.696;2024-01-06T10:57:24;0.30;99.90
16846;DHT22;8539;53.188;8.696;2024-01-06T10:59:51;0.30;99.90
16846;DHT22;8539;53.188;8.696;2024-01-06T11:02:19;0.30;99.90
16846;DHT22;8539;53.188;8.696;2024-01-06T11:04:48;0.30;99.90
16846;DHT22;8539;53.188;8.696;2024-01-06T11:07:19;0.30;99.90
16846;DHT22;8539;53.188;8.696;2024-01-06T11:10:05;0.40;99.90
16846;DHT22;8539;53.188;8.696;2024-01-06T11:12:32;0.40;99.90
16846;DHT22;8539;53.188;8.696;2024-01-06T11:14:59;0.40;99.90
16846;DHT22;8539;53.188;8.696;2024-01-06T11:17:50;0.40;99.90
16846;DHT22;8539;53.188;8.696;2024-01-06T11:20:19;0.40;99.90
16846;DHT22;8539;53.188;8.696;2024-01-06T11:22:47;0.30;99.90
16846;DHT22;8539;53.188;8.696;2024-01-06T11:25:18;0.30;99.90
16846;DHT22;8539;53.188;8.696;2024-01-06T11:27:47;0.30;99.90
16846;DHT22;8539;53.188;8.696;2024-01-06T11:30:23;0.30;99.90
16846;DHT22;8539;53.188;8.696;2024-01-06T11:32:56;0.30;99.90
16846;DHT22;8539;53.188;8.696;2024-01-06T11:35:26;0.30;99.90
16846;DHT22;8539;53.188;8.696;2024-01-06T11:37:54;0.30;99.90
16846;DHT22;8539;53.188;8.696;2024-01-06T11:43:00;0.30;99.90
16846;DHT22;8539;53.188;8.696;2024-01-06T11:45:27;0.30;99.90
16846;DHT22;8539;53.188;8.696;2024-01-06T11:47:56;0.30;99.90
16846;DHT22;8539;53.188;8.696;2024-01-06T11:50:26;0.40;99.90
16846;DHT22;8539;53.188;8.696;2024-01-06T11:52:53;0.20;99.90
16846;DHT22;8539;53.188;8.696;2024-01-06T11:55:19;0.40;99.90
16846;DHT22;8539;53.188;8.696;2024-01-06T11:57:45;0.30;99.90
16846;DHT22;8539;53.188;8.696;2024-01-06T12:00:13;0.20;99.90
16846;DHT22;8539;53.188;8.696;2024-01-06T12:02:41;0.20;99.90
16846;DHT22;8539;53.188;8.696;2024-01-06T12:05:15;0.20;99.90
16846;DHT22;8539;53.188;8.696;2024-01-06T12:07:42;0.20;99.90
16846;DHT22;8539;53.188;8.696;2024-01-06T12:10:09;0.10;99.90
16846;DHT22;8539;53.188;8.696;2024-01-06T12:12:35;0.10;99.90
16846;DHT22;8539;53.188;8.696;2024-01-06T12:15:01;0.10;99.90
16846;DHT22;8539;53.188;8.696;2024-01-06T12:17:31;0.20;99.90
16846;DHT22;8539;53.188;8.696;2024-01-06T12:19:57;0.20;99.90
16846;DHT22;8539;53.188;8.696;2024-01-06T12:22:23;0.20;99.90
16846;DHT22;8539;53.188;8.696;2024-01-06T12:24:50;0.20;99.90
16846;DHT22;8539;53.188;8.696;2024-01-06T12:27:16;0.20;99.90
16846;DHT22;8539;53.188;8.696;2024-01-06T12:29:43;0.10;99.90
16846;DHT22;8539;53.188;8.696;2024-01-06T12:32:10;0.10;99.90
16846;DHT22;8539;53.188;8.696;2024-01-06T12:34:36;0.10;99.90
16846;DHT22;8539;53.188;8.696;2024-01-06T12:37:03;0.00;99.90
16846;DHT22;8539;53.188;8.696;2024-01-06T12:39:30;0.10;99.90
16846;DHT22;8539;53.188;8.696;2024-01-06T12:41:56;0.10;99.90
16846;DHT22;8539;53.188;8.696;2024-01-06T12:44:22;0.10;99.90
16846;DHT22;8539;53.188;8.696;2024-01-06T12:46:51;0.10;99.90
16846;DHT22;8539;53.188;8.696;2024-01-06T12:49:17;0.10;99.90
16846;DHT22;8539;53.188;8.696;2024-01-06T12:51:43;0.10;99.90
16846;DHT22;8539;53.188;8.696;2024-01-06T12:54:09;0.10;99.90
16846;DHT22;8539;53.188;8.696;2024-01-06T12:56:35;0.10;99.90
16846;DHT22;8539;53.188;8.696;2024-01-06T12:59:01;0.00;99.90
16846;DHT22;8539;53.188;8.696;2024-01-06T13:01:27;0.10;99.90
16846;DHT22;8539;53.188;8.696;2024-01-06T13:03:53;0.10;99.90
16846;DHT22;8539;53.188;8.696;2024-01-06T13:06:20;0.00;99.90
16846;DHT22;8539;53.188;8.696;2024-01-06T13:08:46;0.00;99.90
16846;DHT22;8539;53.188;8.696;2024-01-06T13:11:13;0.00;99.90
16846;DHT22;8539;53.188;8.696;2024-01-06T13:13:39;0.00;99.90
16846;DHT22;8539;53.188;8.696;2024-01-06T13:16:05;0.00;99.90
16846;DHT22;8539;53.188;8.696;2024-01-06T13:18:31;0.00;99.90
16846;DHT22;8539;53.188;8.696;2024-01-06T13:20:57;0.00;99.90
16846;DHT22;8539;53.188;8.696;2024-01-06T13:23:24;0.00;99.90
16846;DHT22;8539;53.188;8.696;2024-01-06T13:25:50;-0.10;99.90
16846;DHT22;8539;53.188;8.696;2024-01-06T13:28:16;-0.10;99.90
16846;DHT22;8539;53.188;8.696;2024-01-06T13:30:42;-0.20;99.90
16846;DHT22;8539;53.188;8.696;2024-01-06T13:33:08;-0.10;99.90
16846;DHT22;8539;53.188;8.696;2024-01-06T13:35:36;-0.10;99.90
16846;DHT22;8539;53.188;8.696;2024-01-06T13:38:04;-0.10;99.90
16846;DHT22;8539;53.188;8.696;2024-01-06T13:40:30;-0.10;99.90
16846;DHT22;8539;53.188;8.696;2024-01-06T13:42:57;-0.10;99.90
16846;DHT22;8539;53.188;8.696;2024-01-06T13:45:23;-0.10;99.90
16846;DHT22;8539;53.188;8.696;2024-01-06T13:47:49;-0.20;99.90
16846;DHT22;8539;53.188;8.696;2024-01-06T13:50:19;-0.20;99.90
16846;DHT22;8539;53.188;8.696;2024-01-06T13:52:45;-0.20;99.90
16846;DHT22;8539;53.188;8.696;2024-01-06T13:55:12;-0.20;99.90
16846;DHT22;8539;53.188;8.696;2024-01-06T13:57:38;-0.20;99.90
16846;DHT22;8539;53.188;8.696;2024-01-06T14:00:10;-0.20;99.90
16846;DHT22;8539;53.188;8.696;2024-01-06T14:02:37;-0.20;99.90
16846;DHT22;8539;53.188;8.696;2024-01-06T14:05:04;-0.20;99.90
16846;DHT22;8539;53.188;8.696;2024-01-06T14:07:30;-0.20;99.90
16846;DHT22;8539;53.188;8.696;2024-01-06T14:09:56;-0.20;99.90
16846;DHT22;8539;53.188;8.696;2024-01-06T14:12:23;-0.20;99.90
16846;DHT22;8539;53.188;8.696;2024-01-06T14:14:48;-0.20;99.90
16846;DHT22;8539;53.188;8.696;2024-01-06T14:17:14;-0.10;99.90
16846;DHT22;8539;53.188;8.696;2024-01-06T14:19:40;-0.10;99.90
16846;DHT22;8539;53.188;8.696;2024-01-06T14:22:07;-0.10;99.90
16846;DHT22;8539;53.188;8.696;2024-01-06T14:24:33;-0.10;99.90
16846;DHT22;8539;53.188;8.696;2024-01-06T14:27:01;-0.20;99.90
16846;DHT22;8539;53.188;8.696;2024-01-06T14:29:28;-0.20;99.90
16846;DHT22;8539;53.188;8.696;2024-01-06T14:31:55;-0.20;99.90
16846;DHT22;8539;53.188;8.696;2024-01-06T14:34:21;-0.20;99.90
16846;DHT22;8539;53.188;8.696;2024-01-06T14:36:47;-0.20;99.90
16846;DHT22;8539;53.188;8.696;2024-01-06T14:39:16;-0.20;99.90
16846;DHT22;8539;53.188;8.696;2024-01-06T14:41:42;-0.20;99.90
16846;DHT22;8539;53.188;8.696;2024-01-06T14:44:08;-0.30;99.90
16846;DHT22;8539;53.188;8.696;2024-01-06T14:46:35;-0.30;99.90
16846;DHT22;8539;53.188;8.696;2024-01-06T14:49:04;-0.30;99.90
16846;DHT22;8539;53.188;8.696;2024-01-06T14:51:30;-0.30;99.90
16846;DHT22;8539;53.188;8.696;2024-01-06T14:53:56;-0.30;99.90
16846;DHT22;8539;53.188;8.696;2024-01-06T14:56:23;-0.30;99.90
16846;DHT22;8539;53.188;8.696;2024-01-06T14:58:49;-0.30;99.90
16846;DHT22;8539;53.188;8.696;2024-01-06T15:01:15;-0.30;99.90
16846;DHT22;8539;53.188;8.696;2024-01-06T15:03:41;-0.30;99.90
16846;DHT22;8539;53.188;8.696;2024-01-06T15:06:07;-0.20;99.90
16846;DHT22;8539;53.188;8.696;2024-01-06T15:08:33;-0.30;99.90
16846;DHT22;8539;53.188;8.696;2024-01-06T15:11:00;-0.20;99.90
16846;DHT22;8539;53.188;8.696;2024-01-06T15:13:26;-0.30;99.90
16846;DHT22;8539;53.188;8.696;2024-01-06T15:15:52;-0.20;99.90
16846;DHT22;8539;53.188;8.696;2024-01-06T15:18:18;-0.30;99.90
16846;DHT22;8539;53.188;8.696;2024-01-06T15:20:47;-0.30;99.90
16846;DHT22;8539;53.188;8.696;2024-01-06T15:23:12;-0.30;99.90
16846;DHT22;8539;53.188;8.696;2024-01-06T15:25:38;-0.20;99.90
16846;DHT22;8539;53.188;8.696;2024-01-06T15:28:04;-0.30;99.90
16846;DHT22;8539;53.188;8.696;2024-01-06T15:30:30;-0.30;99.90
16846;DHT22;8539;53.188;8.696;2024-01-06T15:32:57;-0.30;99.90
16846;DHT22;8539;53.188;8.696;2024-01-06T15:35:23;-0.30;99.90
16846;DHT22;8539;53.188;8.696;2024-01-06T15:37:49;-0.30;99.90
16846;DHT22;8539;53.188;8.696;2024-01-06T15:40:14;-0.30;99.90
16846;DHT22;8539;53.188;8.696;2024-01-06T15:42:42;-0.30;99.90
16846;DHT22;8539;53.188;8.696;2024-01-06T15:45:08;-0.40;99.90
16846;DHT22;8539;53.188;8.696;2024-01-06T15:47:34;-0.40;99.90
16846;DHT22;8539;53.188;8.696;2024-01-06T15:50:00;-0.30;99.90
16846;DHT22;8539;53.188;8.696;2024-01-06T15:52:26;-0.40;99.90
16846;DHT22;8539;53.188;8.696;2024-01-06T15:54:52;-0.40;99.90
16846;DHT22;8539;53.188;8.696;2024-01-06T15:57:19;-0.40;99.90